createdAt,value
2022-08-30T00:04:10.698Z,2.20
2022-08-30T00:07:03.121Z,2.30
2022-08-30T00:09:51.835Z,2.50
2022-08-30T00:12:49.991Z,2.63
2022-08-30T00:15:39.168Z,2.87
2022-08-30T00:21:28.100Z,2.27
2022-08-30T00:24:15.669Z,2.50
2022-08-30T00:27:05.465Z,2.60
2022-08-30T00:29:55.196Z,2.17
2022-08-30T00:32:43.736Z,2.30
2022-08-30T00:35:32.637Z,2.10
2022-08-30T00:38:24.125Z,2.60
2022-08-30T00:41:11.902Z,2.37
2022-08-30T00:44:00.791Z,2.70
2022-08-30T00:46:53.895Z,3.27
2022-08-30T00:49:47.590Z,3.47
2022-08-30T00:52:38.152Z,3.40
2022-08-30T00:55:51.017Z,3.47
2022-08-30T00:58:44.648Z,3.07
2022-08-30T01:01:34.363Z,3.30
2022-08-30T01:04:30.726Z,2.97
2022-08-30T01:07:19.096Z,3.47
2022-08-30T01:10:10.301Z,3.20
2022-08-30T01:12:58.615Z,3.33
2022-08-30T01:15:49.160Z,3.77
2022-08-30T01:18:40.502Z,3.93
2022-08-30T01:21:45.394Z,3.50
2022-08-30T01:24:40.097Z,3.65
2022-08-30T01:27:32.930Z,3.97
2022-08-30T01:30:23.324Z,3.83
2022-08-30T01:33:13.889Z,4.00
2022-08-30T01:36:06.072Z,4.70
2022-08-30T01:39:04.749Z,3.27
2022-08-30T01:41:53.819Z,3.93
2022-08-30T01:44:49.563Z,4.00
2022-08-30T01:47:37.676Z,5.30
2022-08-30T01:50:26.028Z,3.90
2022-08-30T01:53:14.092Z,3.67
2022-08-30T01:56:01.883Z,3.47
2022-08-30T01:58:54.388Z,4.00
2022-08-30T02:01:43.205Z,3.27
2022-08-30T02:04:33.649Z,3.83
2022-08-30T02:07:22.270Z,3.67
2022-08-30T02:10:10.711Z,3.50
2022-08-30T02:12:59.917Z,3.10
2022-08-30T02:15:49.919Z,3.50
2022-08-30T02:18:39.651Z,3.13
2022-08-30T02:21:30.240Z,2.97
2022-08-30T02:24:21.634Z,3.40
2022-08-30T02:27:09.774Z,2.97
2022-08-30T02:29:57.328Z,2.93
2022-08-30T02:32:45.235Z,3.00
2022-08-30T02:35:32.974Z,3.83
2022-08-30T02:38:23.749Z,3.20
2022-08-30T02:41:11.994Z,2.80
2022-08-30T02:44:00.483Z,3.30
2022-08-30T02:46:48.311Z,3.07
2022-08-30T02:49:39.932Z,3.00
2022-08-30T02:52:37.976Z,3.07
2022-08-30T02:55:25.600Z,3.67
2022-08-30T02:58:16.683Z,3.70
2022-08-30T03:01:05.949Z,3.50
2022-08-30T03:03:54.904Z,3.27
2022-08-30T03:06:42.788Z,3.00
2022-08-30T03:09:30.584Z,3.70
2022-08-30T03:12:18.948Z,3.80
2022-08-30T03:15:07.434Z,4.20
2022-08-30T03:17:55.746Z,3.50
2022-08-30T03:20:46.101Z,3.20
2022-08-30T03:23:44.639Z,3.63
2022-08-30T03:26:34.214Z,3.20
2022-08-30T03:29:23.005Z,4.27
2022-08-30T03:32:11.837Z,4.17
2022-08-30T03:34:59.831Z,4.63
2022-08-30T03:37:47.701Z,4.53
2022-08-30T03:40:54.666Z,4.20
2022-08-30T03:43:42.484Z,3.70
2022-08-30T03:46:32.630Z,3.90
2022-08-30T03:49:24.623Z,4.37
2022-08-30T05:51:24.964Z,3.23
2022-08-30T05:54:14.450Z,5.27
2022-08-30T06:00:34.823Z,4.00
2022-08-30T06:03:32.973Z,4.00
2022-08-30T06:06:20.907Z,3.63
2022-08-30T06:09:30.587Z,3.47
2022-08-30T06:12:20.053Z,3.60
2022-08-30T06:15:24.308Z,3.77
2022-08-30T06:18:13.590Z,3.50
2022-08-30T06:21:01.054Z,3.40
2022-08-30T06:23:48.982Z,3.60
2022-08-30T06:26:43.044Z,3.27
2022-08-30T06:29:33.038Z,3.57
2022-08-30T06:32:23.782Z,3.40
2022-08-30T06:35:13.023Z,3.13
2022-08-30T06:38:02.641Z,2.73
2022-08-30T06:40:51.103Z,2.97
2022-08-30T06:43:52.294Z,2.73
2022-08-30T06:46:46.890Z,2.40
2022-08-30T06:49:38.527Z,2.15
2022-08-30T06:52:29.743Z,1.77
2022-08-30T06:56:22.235Z,2.10
2022-08-30T06:59:01.051Z,2.67
2022-08-30T07:02:02.793Z,2.10
2022-08-30T07:04:54.776Z,1.88
2022-08-30T07:07:49.627Z,1.70
2022-08-30T07:10:55.601Z,2.22
2022-08-30T07:13:46.015Z,1.90
2022-08-30T07:16:50.941Z,2.20
2022-08-30T07:19:40.754Z,1.80
2022-08-30T07:22:29.029Z,1.50
2022-08-30T07:25:17.044Z,1.97
2022-08-30T07:28:10.658Z,1.60
2022-08-30T07:31:16.034Z,1.50
2022-08-30T07:34:05.094Z,2.13
2022-08-30T07:36:58.250Z,1.33
2022-08-30T07:39:53.454Z,1.50
2022-08-30T07:42:41.415Z,1.20
2022-08-30T07:45:28.919Z,1.40
2022-08-30T07:51:45.114Z,1.57
2022-08-30T07:54:33.399Z,1.83
2022-08-30T07:57:24.435Z,1.13
2022-08-30T08:00:22.452Z,0.97
2022-08-30T08:03:27.433Z,1.53
2022-08-30T08:06:16.700Z,1.00
2022-08-30T08:09:04.408Z,1.20
2022-08-30T08:11:52.117Z,0.90
2022-08-30T08:14:40.816Z,1.00
2022-08-30T08:17:29.980Z,1.17
2022-08-30T08:20:17.907Z,1.00
2022-08-30T08:23:05.587Z,1.10
2022-08-30T08:25:53.042Z,1.40
2022-08-30T08:28:40.606Z,1.20
2022-08-30T08:31:33.387Z,1.20
2022-08-30T08:34:26.110Z,1.40
2022-08-30T08:41:28.409Z,1.00
2022-08-30T08:48:19.082Z,1.20
2022-08-30T08:51:34.153Z,1.30
2022-08-30T08:54:42.687Z,1.30
2022-08-30T08:57:36.887Z,1.20
2022-08-30T09:00:26.367Z,0.80
2022-08-30T09:03:18.887Z,1.87
2022-08-30T09:06:26.527Z,1.23
2022-08-30T09:09:27.667Z,1.10
2022-08-30T09:12:18.818Z,1.20
2022-08-30T09:15:23.886Z,1.03
2022-08-30T09:18:19.749Z,1.45
2022-08-30T09:21:15.907Z,1.40
2022-08-30T09:24:08.816Z,1.00
2022-08-30T09:27:17.101Z,1.10
2022-08-30T09:30:22.001Z,1.50
2022-08-30T09:33:20.622Z,1.03
2022-08-30T09:36:29.678Z,1.30
2022-08-30T09:39:37.650Z,1.17
2022-08-30T09:42:29.007Z,1.27
2022-08-30T09:45:34.573Z,1.53
2022-08-30T09:48:45.935Z,1.23
2022-08-30T09:52:42.231Z,1.37
2022-08-30T10:00:40.797Z,1.20
2022-08-30T10:03:47.585Z,1.73
2022-08-30T10:06:54.281Z,1.30
2022-08-30T10:10:11.199Z,1.60
2022-08-30T10:13:02.210Z,1.50
2022-08-30T10:15:58.223Z,1.50
2022-08-30T10:19:26.710Z,1.47
2022-08-30T10:22:29.852Z,1.27
2022-08-30T10:25:45.595Z,1.58
2022-08-30T10:28:55.173Z,1.63
2022-08-30T10:32:18.328Z,1.60
2022-08-30T10:39:27.129Z,1.30
2022-08-30T10:42:46.027Z,1.77
2022-08-30T10:45:41.755Z,1.70
2022-08-30T10:49:01.765Z,1.75
2022-08-30T10:52:06.123Z,1.50
2022-08-30T10:55:16.421Z,1.75
2022-08-30T10:58:12.622Z,1.70
2022-08-30T11:01:36.008Z,1.50
2022-08-30T11:04:34.201Z,1.55
2022-08-30T11:08:06.231Z,1.63
2022-08-30T11:11:12.939Z,1.33
2022-08-30T11:14:05.825Z,1.70
2022-08-30T11:17:40.591Z,1.33
2022-08-30T11:20:56.894Z,1.77
2022-08-30T11:26:48.443Z,1.52
2022-08-30T11:29:40.167Z,1.42
2022-08-30T11:32:59.985Z,1.45
2022-08-30T11:35:57.062Z,1.40
2022-08-30T11:38:52.217Z,1.52
2022-08-30T11:41:48.230Z,1.20
2022-08-30T11:44:36.335Z,1.40
2022-08-30T11:47:48.573Z,1.40
2022-08-30T11:51:32.732Z,1.55
2022-08-30T11:54:26.383Z,1.50
2022-08-30T11:57:50.697Z,2.17
2022-08-30T12:00:43.651Z,1.38
2022-08-30T12:03:35.918Z,1.50
2022-08-30T12:06:48.104Z,1.35
2022-08-30T12:09:36.212Z,1.40
2022-08-30T12:12:32.578Z,1.83
2022-08-30T12:15:49.138Z,1.40
2022-08-30T12:19:02.237Z,1.30
2022-08-30T12:22:19.161Z,1.60
2022-08-30T12:25:21.602Z,1.27
2022-08-30T12:28:15.224Z,1.73
2022-08-30T12:31:18.978Z,1.85
2022-08-30T12:34:06.749Z,1.77
2022-08-30T12:37:03.073Z,1.45
2022-08-30T12:40:09.738Z,1.98
2022-08-30T12:43:01.404Z,1.63
2022-08-30T12:45:55.744Z,1.38
2022-08-30T12:48:45.956Z,1.60
2022-08-30T12:51:43.122Z,2.10
2022-08-30T12:54:42.392Z,1.50
2022-08-30T12:58:00.628Z,1.38
2022-08-30T13:00:48.691Z,1.38
2022-08-30T13:08:03.228Z,1.70
2022-08-30T13:11:02.309Z,1.23
2022-08-30T13:14:18.563Z,1.33
2022-08-30T13:17:29.991Z,1.33
2022-08-30T13:20:23.960Z,1.50
2022-08-30T13:23:14.262Z,1.45
2022-08-30T13:26:02.804Z,1.50
2022-08-30T13:29:02.961Z,1.42
2022-08-30T13:32:05.092Z,1.40
2022-08-30T13:35:10.003Z,1.45
2022-08-30T13:38:22.537Z,1.15
2022-08-30T13:41:14.966Z,1.30
2022-08-30T13:44:13.943Z,1.85
2022-08-30T13:47:33.252Z,1.30
2022-08-30T13:50:26.361Z,1.48
2022-08-30T13:56:42.544Z,1.45
2022-08-30T13:59:33.354Z,1.50
2022-08-30T14:02:21.484Z,1.30
2022-08-30T14:05:47.219Z,1.33
2022-08-30T14:08:45.193Z,1.42
2022-08-30T14:11:35.448Z,1.27
2022-08-30T14:14:41.453Z,1.25
2022-08-30T14:17:32.900Z,1.40
2022-08-30T14:20:23.328Z,1.13
2022-08-30T14:23:12.039Z,1.55
2022-08-30T14:26:17.253Z,1.60
2022-08-30T14:32:00.200Z,0.90
2022-08-30T14:34:57.474Z,1.25
2022-08-30T14:37:48.781Z,1.20
2022-08-30T14:40:42.625Z,1.95
2022-08-30T14:43:30.498Z,1.30
2022-08-30T14:46:34.791Z,1.48
2022-08-30T14:49:25.621Z,1.10
2022-08-30T14:52:20.520Z,1.10
2022-08-30T14:55:31.793Z,1.23
2022-08-30T14:58:24.774Z,0.95
2022-08-30T15:01:13.191Z,1.23
2022-08-30T15:04:02.601Z,1.20
2022-08-30T15:06:55.218Z,1.17
2022-08-30T15:09:45.762Z,1.17
2022-08-30T15:12:34.397Z,1.20
2022-08-30T15:15:26.157Z,1.30
2022-08-30T15:18:35.313Z,1.25
2022-08-30T15:25:33.337Z,1.20
2022-08-30T15:28:30.140Z,1.10
2022-08-30T15:31:55.234Z,1.20
2022-08-30T15:35:53.289Z,1.40
2022-08-30T15:38:47.042Z,1.10
2022-08-30T15:41:46.460Z,1.20
2022-08-30T15:44:56.510Z,1.10
2022-08-30T15:47:47.324Z,1.40
2022-08-30T15:50:47.650Z,1.10
2022-08-30T15:53:42.015Z,1.20
2022-08-30T15:56:34.169Z,1.38
2022-08-30T15:59:44.002Z,1.10
2022-08-30T16:02:54.308Z,1.13
2022-08-30T16:06:04.354Z,1.10
2022-08-30T16:09:12.942Z,1.20
2022-08-30T16:12:21.192Z,1.17
2022-08-30T16:15:19.989Z,1.35
2022-08-30T16:21:44.772Z,1.30
2022-08-30T16:32:49.722Z,1.58
2022-08-30T16:35:47.278Z,1.20
2022-08-30T16:38:57.957Z,1.20
2022-08-30T16:41:56.671Z,1.50
2022-08-30T16:44:55.407Z,1.50
2022-08-30T16:47:54.788Z,1.20
2022-08-30T16:50:57.395Z,1.30
2022-08-30T16:53:48.025Z,1.48
2022-08-30T16:56:54.933Z,1.23
2022-08-30T17:00:47.555Z,1.20
2022-08-30T17:04:13.922Z,1.33
2022-08-30T17:07:28.388Z,1.63
2022-08-30T17:10:31.541Z,1.23
2022-08-30T17:13:26.374Z,1.17
2022-08-30T17:16:22.396Z,1.10
2022-08-30T17:19:15.312Z,1.40
2022-08-30T17:25:16.508Z,1.60
2022-08-30T17:28:04.424Z,1.40
2022-08-30T17:30:52.927Z,1.50
2022-08-30T17:33:42.970Z,1.40
2022-08-30T17:56:10.872Z,1.83
2022-08-30T18:17:17.433Z,1.90
2022-08-30T18:20:07.313Z,1.63
2022-08-30T18:22:55.336Z,2.07
2022-08-30T18:25:49.905Z,1.70
2022-08-30T18:28:38.446Z,2.10
2022-08-30T18:31:26.360Z,1.60
2022-08-30T18:35:18.375Z,1.77
2022-08-30T18:38:08.941Z,2.10
2022-08-30T18:41:16.299Z,1.90
2022-08-30T18:44:33.110Z,2.23
2022-08-30T18:47:29.757Z,2.20
2022-08-30T18:50:27.800Z,2.30
2022-08-30T18:53:28.349Z,2.00
2022-08-30T18:56:33.285Z,1.70
2022-08-30T18:59:35.512Z,2.00
2022-08-30T19:02:32.417Z,2.50
2022-08-30T19:05:24.256Z,2.50
2022-08-30T19:08:22.774Z,2.23
2022-08-30T19:11:20.421Z,2.20
2022-08-30T19:14:19.100Z,2.30
2022-08-30T19:17:09.781Z,1.70
2022-08-30T19:19:57.430Z,2.27
2022-08-30T19:23:09.558Z,2.03
2022-08-30T19:26:13.973Z,1.67
2022-08-30T19:29:18.683Z,2.30
2022-08-30T19:32:31.606Z,2.23
2022-08-30T19:35:32.859Z,2.13
2022-08-30T19:42:03.548Z,1.87
2022-08-30T19:44:55.468Z,2.60
2022-08-30T19:48:14.916Z,2.05
2022-08-30T19:51:21.563Z,2.40
2022-08-30T19:54:16.198Z,2.13
2022-08-30T19:57:40.193Z,2.83
2022-08-30T20:00:55.941Z,2.27
2022-08-30T20:04:09.097Z,3.13
2022-08-30T20:07:27.891Z,3.50
2022-08-30T20:10:25.935Z,3.30
2022-08-30T20:13:24.620Z,2.60
2022-08-30T20:16:29.986Z,3.27
2022-08-30T20:22:56.354Z,3.27
2022-08-30T20:26:20.311Z,2.97
2022-08-30T20:29:24.654Z,2.80
2022-08-30T20:32:37.203Z,2.87
2022-08-30T20:35:48.369Z,2.60
2022-08-30T20:39:17.378Z,2.30
2022-08-30T20:42:09.779Z,2.00
2022-08-30T20:45:08.803Z,2.60
2022-08-30T20:48:05.434Z,2.27
2022-08-30T20:51:02.259Z,2.10
2022-08-30T20:54:36.415Z,2.43
2022-08-30T21:00:54.478Z,1.47
2022-08-30T21:03:44.056Z,1.97
2022-08-30T21:07:15.940Z,1.30
2022-08-30T21:09:54.362Z,2.07
2022-08-30T21:12:59.360Z,1.63
2022-08-30T21:16:00.688Z,1.30
2022-08-30T21:18:55.862Z,1.63
2022-08-30T21:21:48.871Z,1.45
2022-08-30T21:24:41.844Z,1.33
2022-08-30T21:27:38.516Z,1.60
2022-08-30T21:30:28.397Z,1.40
2022-08-30T21:33:18.860Z,1.60
2022-08-30T21:36:38.942Z,1.20
2022-08-30T21:39:28.520Z,1.10
2022-08-30T21:42:22.947Z,1.43
2022-08-30T21:45:17.195Z,1.30
2022-08-30T21:48:25.934Z,1.40
2022-08-30T21:51:16.425Z,1.27
2022-08-30T21:54:13.066Z,1.60
2022-08-30T22:00:45.914Z,1.10
2022-08-30T22:03:34.665Z,1.10
2022-08-30T22:06:25.252Z,1.57
2022-08-30T22:09:27.816Z,1.17
2022-08-30T22:12:15.499Z,1.17
2022-08-30T22:15:07.714Z,1.10
2022-08-30T22:17:56.137Z,1.47
2022-08-30T22:20:43.675Z,1.27
2022-08-30T22:23:35.291Z,1.20
2022-08-30T22:26:25.583Z,1.20
2022-08-30T22:29:26.869Z,1.50
2022-08-30T22:32:18.191Z,1.00
2022-08-30T22:35:07.005Z,1.17
2022-08-30T22:38:00.510Z,1.30
2022-08-30T22:43:56.319Z,1.20
2022-08-30T22:46:50.129Z,1.07
